createdAt,value
2022-10-19T00:02:15.535Z,100880.72
2022-10-19T00:05:18.367Z,100878.13
2022-10-19T00:08:20.973Z,100882.50
2022-10-19T00:11:24.285Z,100882.22
2022-10-19T00:14:26.718Z,100867.31
2022-10-19T00:17:32.126Z,100870.41
2022-10-19T00:20:34.861Z,100870.41
2022-10-19T00:23:38.353Z,100860.22
2022-10-19T00:26:42.712Z,100864.63
2022-10-19T00:29:44.737Z,100860.09
2022-10-19T00:32:47.435Z,100856.00
2022-10-19T00:35:50.708Z,100862.88
2022-10-19T00:38:54.202Z,100854.97
2022-10-19T00:41:56.698Z,100854.63
2022-10-19T00:45:02.349Z,100843.91
2022-10-19T00:48:04.708Z,100835.69
2022-10-19T00:51:09.589Z,100823.84
2022-10-19T00:54:12.346Z,100831.13
2022-10-19T00:57:15.747Z,100828.06
2022-10-19T01:00:18.744Z,100824.53
2022-10-19T01:03:25.812Z,100825.25
2022-10-19T01:06:30.553Z,100809.47
2022-10-19T01:09:33.204Z,100813.22
2022-10-19T01:12:47.506Z,100802.47
2022-10-19T01:15:57.008Z,100806.03
2022-10-19T01:19:08.013Z,100796.78
2022-10-19T01:22:18.549Z,100794.72
2022-10-19T01:25:40.267Z,100798.81
2022-10-19T01:29:04.649Z,100785.66
2022-10-19T01:32:09.906Z,100795.81
2022-10-19T01:35:15.257Z,100791.88
2022-10-19T01:38:23.140Z,100793.16
2022-10-19T01:41:25.925Z,100777.50
2022-10-19T01:44:47.240Z,100779.97
2022-10-19T01:47:56.067Z,100767.03
2022-10-19T01:51:05.441Z,100768.38
2022-10-19T01:54:10.643Z,100773.09
2022-10-19T01:57:15.474Z,100767.56
2022-10-19T02:00:18.565Z,100767.97
2022-10-19T02:03:21.245Z,100768.41
2022-10-19T02:06:24.861Z,100770.16
2022-10-19T02:09:27.836Z,100771.72
2022-10-19T02:12:33.161Z,100768.78
2022-10-19T02:15:37.791Z,100768.38
2022-10-19T02:18:43.559Z,100770.16
2022-10-19T02:21:48.084Z,100769.91
2022-10-19T02:24:53.524Z,100766.78
2022-10-19T02:27:56.772Z,100768.78
2022-10-19T02:31:03.907Z,100764.38
2022-10-19T02:34:07.410Z,100775.47
2022-10-19T02:37:10.206Z,100770.66
2022-10-19T02:40:12.873Z,100766.16
2022-10-19T02:43:20.292Z,100769.00
2022-10-19T02:46:27.299Z,100759.84
2022-10-19T02:49:30.736Z,100770.78
2022-10-19T02:52:34.355Z,100764.81
2022-10-19T02:58:47.080Z,100765.28
2022-10-19T03:01:53.787Z,100759.84
2022-10-19T03:04:59.832Z,100766.63
2022-10-19T03:08:03.316Z,100765.63
2022-10-19T03:11:06.509Z,100773.78
2022-10-19T03:14:09.078Z,100770.19
2022-10-19T03:17:12.894Z,100775.94
2022-10-19T03:20:17.246Z,100780.13
2022-10-19T03:23:20.324Z,100771.19
2022-10-19T03:26:23.310Z,100771.91
2022-10-19T03:29:25.920Z,100774.72
2022-10-19T03:32:29.268Z,100762.59
2022-10-19T03:35:33.818Z,100766.47
2022-10-19T03:38:36.985Z,100766.69
2022-10-19T03:41:39.437Z,100765.66
2022-10-19T03:44:42.453Z,100766.13
2022-10-19T03:47:50.457Z,100767.44
2022-10-19T03:51:08.392Z,100767.22
2022-10-19T03:54:15.094Z,100764.31
2022-10-19T03:57:18.250Z,100769.16
2022-10-19T04:00:20.942Z,100758.13
2022-10-19T04:03:24.286Z,100759.69
2022-10-19T04:06:28.567Z,100754.22
2022-10-19T04:09:31.647Z,100760.47
2022-10-19T04:12:34.965Z,100758.38
2022-10-19T04:15:37.193Z,100765.53
2022-10-19T04:18:42.658Z,100758.75
2022-10-19T04:21:48.304Z,100757.91
2022-10-19T04:24:52.949Z,100771.66
2022-10-19T04:27:55.156Z,100779.72
2022-10-19T04:30:58.670Z,100775.91
2022-10-19T04:34:01.438Z,100768.00
2022-10-19T04:37:04.050Z,100779.78
2022-10-19T04:40:09.464Z,100772.16
2022-10-19T04:43:14.932Z,100766.34
2022-10-19T04:46:19.660Z,100763.09
2022-10-19T04:49:22.172Z,100762.03
2022-10-19T04:52:24.117Z,100765.50
2022-10-19T04:55:26.733Z,100770.38
2022-10-19T04:58:29.988Z,100767.66
2022-10-19T05:01:32.114Z,100768.69
2022-10-19T05:04:35.771Z,100766.31
2022-10-19T05:07:38.919Z,100767.56
2022-10-19T05:10:45.560Z,100764.91
2022-10-19T05:13:50.223Z,100770.72
2022-10-19T05:16:52.747Z,100771.88
2022-10-19T05:20:03.037Z,100775.13
2022-10-19T05:23:10.066Z,100780.59
2022-10-19T05:26:19.020Z,100769.81
2022-10-19T05:29:23.595Z,100777.72
2022-10-19T05:32:28.284Z,100796.22
2022-10-19T05:35:34.078Z,100785.38
2022-10-19T05:38:36.589Z,100783.72
2022-10-19T05:41:39.453Z,100802.44
2022-10-19T05:44:41.629Z,100800.03
2022-10-19T05:47:43.684Z,100797.19
2022-10-19T05:50:55.903Z,100791.00
2022-10-19T05:53:59.157Z,100796.03
2022-10-19T05:57:02.946Z,100801.88
2022-10-19T06:00:07.113Z,100804.41
2022-10-19T06:03:09.323Z,100815.44
2022-10-19T06:06:12.177Z,100813.94
2022-10-19T06:09:14.544Z,100821.91
2022-10-19T06:12:20.422Z,100827.53
2022-10-19T06:15:24.404Z,100824.78
2022-10-19T06:18:29.613Z,100830.53
2022-10-19T06:21:34.045Z,100841.50
2022-10-19T06:24:37.545Z,100828.06
2022-10-19T06:27:41.486Z,100835.56
2022-10-19T06:30:44.814Z,100835.34
2022-10-19T06:33:49.379Z,100836.91
2022-10-19T06:36:52.107Z,100852.91
2022-10-19T06:39:54.065Z,100842.31
2022-10-19T06:43:05.448Z,100851.13
2022-10-19T06:46:12.148Z,100859.59
2022-10-19T06:49:15.178Z,100858.19
2022-10-19T06:52:20.245Z,100870.47
2022-10-19T06:55:29.645Z,100867.00
2022-10-19T06:58:39.332Z,100876.66
2022-10-19T07:01:41.476Z,100885.59
2022-10-19T07:04:43.992Z,100887.13
2022-10-19T07:07:46.853Z,100879.34
2022-10-19T07:11:01.041Z,100887.91
2022-10-19T07:14:04.738Z,100892.56
2022-10-19T07:17:07.566Z,100901.97
2022-10-19T07:20:12.154Z,100904.28
2022-10-19T07:23:16.729Z,100902.25
2022-10-19T07:26:23.590Z,100916.38
2022-10-19T07:29:25.753Z,100918.19
2022-10-19T07:32:29.255Z,100924.22
2022-10-19T07:35:33.404Z,100925.69
2022-10-19T07:38:36.020Z,100919.97
2022-10-19T07:41:40.266Z,100928.84
2022-10-19T07:44:42.546Z,100921.78
2022-10-19T07:47:44.457Z,100932.37
2022-10-19T07:50:54.698Z,100931.75
2022-10-19T07:53:58.225Z,100937.25
2022-10-19T07:57:00.387Z,100939.09
2022-10-19T08:00:02.791Z,100925.31
2022-10-19T08:03:43.690Z,100918.72
2022-10-19T08:06:28.446Z,100922.31
2022-10-19T08:09:52.090Z,100919.31
2022-10-19T08:12:56.585Z,100913.50
2022-10-19T08:16:02.214Z,100919.38
2022-10-19T08:19:07.455Z,100907.87
2022-10-19T08:22:09.603Z,100924.53
2022-10-19T08:25:15.272Z,100918.84
2022-10-19T08:28:19.886Z,100915.22
2022-10-19T08:31:29.380Z,100923.03
2022-10-19T08:34:33.473Z,100927.06
2022-10-19T08:37:47.430Z,100918.28
2022-10-19T08:40:53.094Z,100920.97
2022-10-19T08:44:10.468Z,100932.22
2022-10-19T08:47:17.533Z,100932.97
2022-10-19T08:50:30.876Z,100926.72
2022-10-19T08:53:39.708Z,100926.84
2022-10-19T08:56:53.292Z,100932.13
2022-10-19T08:59:56.352Z,100942.13
2022-10-19T09:03:37.399Z,100938.78
2022-10-19T09:06:59.414Z,100932.50
2022-10-19T09:10:04.288Z,100935.56
2022-10-19T09:13:08.745Z,100934.56
2022-10-19T09:16:16.016Z,100926.62
2022-10-19T09:19:25.880Z,100927.16
2022-10-19T09:22:34.151Z,100931.34
2022-10-19T09:25:38.476Z,100925.97
2022-10-19T09:28:56.604Z,100938.41
2022-10-19T09:32:02.486Z,100932.91
2022-10-19T09:35:05.171Z,100929.28
2022-10-19T09:38:08.043Z,100933.81
2022-10-19T09:41:20.765Z,100930.22
2022-10-19T09:44:25.263Z,100933.97
2022-10-19T09:47:33.794Z,100941.81
2022-10-19T09:50:43.684Z,100939.03
2022-10-19T09:53:54.528Z,100937.25
2022-10-19T09:56:57.504Z,100937.34
2022-10-19T09:59:59.577Z,100928.06
2022-10-19T10:03:01.962Z,100928.81
2022-10-19T10:06:07.626Z,100926.75
2022-10-19T10:09:16.223Z,100923.12
2022-10-19T10:12:19.528Z,100911.03
2022-10-19T10:15:23.942Z,100918.00
2022-10-19T10:18:31.115Z,100913.84
2022-10-19T10:21:47.063Z,100911.41
2022-10-19T10:24:54.144Z,100911.19
2022-10-19T10:28:04.452Z,100892.50
2022-10-19T10:31:07.824Z,100895.75
2022-10-19T10:34:28.689Z,100892.44
2022-10-19T10:37:41.207Z,100892.56
2022-10-19T10:40:51.882Z,100880.28
2022-10-19T10:44:07.563Z,100878.66
2022-10-19T10:47:14.883Z,100881.84
2022-10-19T10:50:22.470Z,100881.78
2022-10-19T10:53:36.631Z,100880.53
2022-10-19T10:56:46.423Z,100883.47
2022-10-19T11:00:12.361Z,100878.88
2022-10-19T11:03:24.001Z,100869.50
2022-10-19T11:06:26.864Z,100863.28
2022-10-19T11:09:29.384Z,100863.38
2022-10-19T11:12:36.060Z,100853.66
2022-10-19T11:15:59.879Z,100848.59
2022-10-19T11:19:25.241Z,100862.88
2022-10-19T11:22:37.046Z,100856.59
2022-10-19T11:26:04.510Z,100855.56
2022-10-19T11:29:06.397Z,100851.28
2022-10-19T11:32:18.109Z,100854.88
2022-10-19T11:35:39.077Z,100849.16
2022-10-19T11:38:51.523Z,100842.56
2022-10-19T11:42:09.281Z,100838.22
2022-10-19T11:45:13.285Z,100836.13
2022-10-19T11:48:18.436Z,100833.47
2022-10-19T11:51:29.617Z,100833.16
2022-10-19T11:54:43.933Z,100839.12
2022-10-19T11:57:55.965Z,100837.84
2022-10-19T12:01:26.429Z,100838.69
2022-10-19T12:04:43.968Z,100838.69
2022-10-19T12:07:55.773Z,100832.63
2022-10-19T12:11:19.693Z,100832.47
2022-10-19T12:14:31.959Z,100833.41
2022-10-19T12:17:39.050Z,100831.34
2022-10-19T12:20:51.293Z,100827.13
2022-10-19T12:27:51.954Z,100812.63
2022-10-19T12:30:54.857Z,100819.69
2022-10-19T12:34:15.702Z,100807.84
2022-10-19T12:37:22.617Z,100801.09
2022-10-19T12:40:28.314Z,100794.31
2022-10-19T12:43:49.201Z,100800.59
2022-10-19T12:46:56.413Z,100795.16
2022-10-19T12:50:04.132Z,100796.50
2022-10-19T12:56:29.345Z,100790.84
2022-10-19T12:59:44.261Z,100787.38
2022-10-19T13:02:50.623Z,100790.31
2022-10-19T13:05:57.359Z,100785.72
2022-10-19T13:09:04.662Z,100772.56
2022-10-19T13:12:20.076Z,100768.59
2022-10-19T13:15:35.665Z,100773.56
2022-10-19T13:19:07.336Z,100767.31
2022-10-19T13:22:33.601Z,100767.97
2022-10-19T13:25:46.258Z,100773.13
2022-10-19T13:28:53.414Z,100772.31
2022-10-19T13:32:19.993Z,100778.69
2022-10-19T13:35:28.758Z,100784.97
2022-10-19T13:38:38.812Z,100781.25
2022-10-19T13:41:49.240Z,100785.72
2022-10-19T13:44:53.437Z,100786.09
2022-10-19T13:48:03.686Z,100793.22
2022-10-19T13:51:26.430Z,100795.09
2022-10-19T13:54:52.050Z,100789.25
2022-10-19T13:58:24.564Z,100789.94
2022-10-19T14:01:55.101Z,100785.56
2022-10-19T14:05:21.615Z,100791.28
2022-10-19T14:08:36.344Z,100787.22
2022-10-19T14:11:40.961Z,100776.22
2022-10-19T14:14:45.360Z,100773.72
2022-10-19T14:17:47.607Z,100773.56
2022-10-19T14:21:08.003Z,100781.69
2022-10-19T14:24:32.015Z,100786.06
2022-10-19T14:27:35.895Z,100780.69
2022-10-19T14:30:39.022Z,100789.94
2022-10-19T14:33:48.232Z,100785.22
2022-10-19T14:37:01.955Z,100782.78
2022-10-19T14:40:16.027Z,100796.81
2022-10-19T14:43:24.122Z,100790.47
2022-10-19T14:46:37.732Z,100792.50
2022-10-19T14:49:41.057Z,100786.13
2022-10-19T14:52:45.238Z,100780.59
2022-10-19T14:55:48.552Z,100784.34
2022-10-19T14:58:55.938Z,100783.13
2022-10-19T15:02:04.811Z,100777.56
2022-10-19T15:05:18.341Z,100775.22
2022-10-19T15:08:32.179Z,100775.63
2022-10-19T15:11:40.396Z,100782.69
2022-10-19T15:14:43.155Z,100782.81
2022-10-19T15:18:02.106Z,100777.41
2022-10-19T15:21:34.587Z,100777.06
2022-10-19T15:24:43.772Z,100779.37
2022-10-19T15:27:57.386Z,100782.94
2022-10-19T15:31:01.907Z,100775.31
2022-10-19T15:34:27.246Z,100776.37
2022-10-19T15:37:31.470Z,100785.78
2022-10-19T15:40:35.243Z,100802.22
2022-10-19T15:43:38.779Z,100787.34
2022-10-19T15:46:50.029Z,100788.56
2022-10-19T15:50:01.554Z,100783.94
2022-10-19T15:53:04.665Z,100785.44
2022-10-19T15:56:12.540Z,100793.81
2022-10-19T15:59:21.279Z,100802.94
2022-10-19T16:02:35.990Z,100823.78
2022-10-19T16:05:42.538Z,100810.75
2022-10-19T16:08:46.892Z,100812.34
2022-10-19T16:11:49.355Z,100804.09
2022-10-19T16:14:57.136Z,100811.53
2022-10-19T16:18:05.563Z,100789.37
2022-10-19T16:21:09.822Z,100795.81
2022-10-19T16:24:13.554Z,100805.28
2022-10-19T16:27:21.525Z,100818.22
2022-10-19T16:30:24.604Z,100824.19
2022-10-19T16:33:29.835Z,100832.63
2022-10-19T16:36:34.682Z,100830.72
2022-10-19T16:39:41.749Z,100826.87
2022-10-19T16:42:51.347Z,100811.62
2022-10-19T16:45:54.061Z,100796.69
2022-10-19T16:49:02.163Z,100809.94
2022-10-19T16:52:06.683Z,100802.06
2022-10-19T16:55:12.105Z,100829.28
2022-10-19T16:58:14.759Z,100838.00
2022-10-19T17:01:18.666Z,100842.41
2022-10-19T17:04:25.429Z,100842.03
2022-10-19T17:07:31.893Z,100837.53
2022-10-19T17:10:50.980Z,100840.63
2022-10-19T17:13:55.549Z,100850.28
2022-10-19T17:16:58.150Z,100852.66
2022-10-19T17:20:00.311Z,100871.88
2022-10-19T17:23:02.507Z,100874.00
2022-10-19T17:26:05.646Z,100872.34
2022-10-19T17:29:13.818Z,100881.00
2022-10-19T17:32:16.005Z,100883.28
2022-10-19T17:35:18.506Z,100884.06
2022-10-19T17:38:22.813Z,100875.50
2022-10-19T17:41:25.432Z,100882.75
2022-10-19T17:44:30.754Z,100880.13
2022-10-19T17:47:33.532Z,100881.19
2022-10-19T17:50:37.003Z,100887.03
2022-10-19T17:53:39.644Z,100887.38
2022-10-19T17:56:45.533Z,100882.56
2022-10-19T17:59:52.959Z,100894.25
2022-10-19T18:03:02.772Z,100897.31
2022-10-19T18:06:10.785Z,100901.00
2022-10-19T18:09:14.414Z,100894.06
2022-10-19T18:12:30.932Z,100901.06
2022-10-19T18:15:35.050Z,100905.19
2022-10-19T18:18:38.444Z,100899.22
2022-10-19T18:21:43.189Z,100889.28
2022-10-19T18:24:46.843Z,100904.72
2022-10-19T18:27:52.995Z,100918.56
2022-10-19T18:30:55.743Z,100934.00
2022-10-19T18:34:02.942Z,100927.09
2022-10-19T18:37:13.294Z,100920.09
2022-10-19T18:40:16.461Z,100917.91
2022-10-19T18:43:18.878Z,100920.91
2022-10-19T18:46:21.658Z,100921.87
2022-10-19T18:49:24.958Z,100924.81
2022-10-19T18:52:28.411Z,100942.81
2022-10-19T18:55:32.747Z,100941.16
2022-10-19T18:58:36.336Z,100943.25
2022-10-19T19:01:41.542Z,100957.91
2022-10-19T19:04:44.507Z,100975.91
2022-10-19T19:07:47.709Z,100979.75
2022-10-19T19:10:49.822Z,100978.50
2022-10-19T19:14:02.010Z,100975.66
2022-10-19T19:17:11.222Z,100979.72
2022-10-19T19:20:14.863Z,100964.22
2022-10-19T19:23:23.779Z,100969.00
2022-10-19T19:26:29.336Z,100964.38
2022-10-19T19:29:38.440Z,100948.69
2022-10-19T19:32:40.992Z,100953.94
2022-10-19T19:35:47.415Z,100971.28
2022-10-19T19:38:56.533Z,100968.97
2022-10-19T19:42:03.009Z,100958.31
2022-10-19T19:45:08.931Z,100976.22
2022-10-19T19:48:15.722Z,100989.50
2022-10-19T19:51:26.534Z,101002.84
2022-10-19T19:54:48.944Z,100993.91
2022-10-19T19:57:55.351Z,101001.31
2022-10-19T20:00:57.629Z,100996.97
2022-10-19T20:07:17.213Z,101006.09
2022-10-19T20:10:21.541Z,101008.34
2022-10-19T20:13:27.188Z,101006.87
2022-10-19T20:16:36.044Z,101009.13
2022-10-19T20:19:40.856Z,101010.09
2022-10-19T20:22:52.562Z,101016.97
2022-10-19T20:25:57.408Z,101032.97
2022-10-19T20:29:06.239Z,101029.53
2022-10-19T20:32:09.761Z,101038.50
2022-10-19T20:35:14.007Z,101039.59
2022-10-19T20:38:18.866Z,101043.81
2022-10-19T20:41:23.091Z,101043.13
2022-10-19T20:44:30.458Z,101045.28
2022-10-19T20:47:32.692Z,101044.06
2022-10-19T20:50:35.501Z,101040.19
2022-10-19T20:53:47.188Z,101042.06
2022-10-19T20:56:53.811Z,101041.59
2022-10-19T20:59:56.338Z,101050.19
2022-10-19T21:03:06.028Z,101044.78
2022-10-19T21:06:11.334Z,101045.47
2022-10-19T21:09:25.467Z,101047.13
2022-10-19T21:12:30.557Z,101046.66
2022-10-19T21:15:42.491Z,101048.13
2022-10-19T21:18:57.183Z,101063.53
2022-10-19T21:22:10.464Z,101066.78
2022-10-19T21:25:14.410Z,101055.50
2022-10-19T21:28:27.426Z,101057.19
2022-10-19T21:31:30.061Z,101057.75
2022-10-19T21:34:32.391Z,101052.53
2022-10-19T21:37:35.859Z,101052.53
2022-10-19T21:40:41.964Z,101052.28
2022-10-19T21:43:44.183Z,101057.19
2022-10-19T21:47:00.893Z,101065.72
2022-10-19T21:50:06.189Z,101069.22
2022-10-19T21:53:11.867Z,101067.56
2022-10-19T21:56:15.103Z,101067.00
2022-10-19T21:59:25.020Z,101074.94
2022-10-19T22:02:34.724Z,101080.16
2022-10-19T22:05:45.668Z,101068.44
2022-10-19T22:09:04.865Z,101074.69
2022-10-19T22:12:07.782Z,101067.97
2022-10-19T22:15:10.913Z,101073.09
2022-10-19T22:18:15.595Z,101074.78
2022-10-19T22:21:20.895Z,101068.16
2022-10-19T22:24:35.075Z,101067.81
2022-10-19T22:27:43.678Z,101064.19
2022-10-19T22:30:58.596Z,101066.84
2022-10-19T22:34:08.694Z,101055.13
2022-10-19T22:37:23.178Z,101057.22
2022-10-19T22:40:28.877Z,101061.44
2022-10-19T22:43:32.345Z,101064.31
2022-10-19T22:46:34.312Z,101058.69
2022-10-19T22:49:42.925Z,101052.88
2022-10-19T22:53:06.574Z,101056.06
2022-10-19T22:57:02.542Z,101070.13
2022-10-19T23:00:12.593Z,101070.50
2022-10-19T23:03:15.038Z,101071.44
2022-10-19T23:06:28.836Z,101066.81
2022-10-19T23:09:31.405Z,101061.69
2022-10-19T23:12:52.119Z,101056.72
2022-10-19T23:15:54.626Z,101073.12
2022-10-19T23:19:06.806Z,101075.16
2022-10-19T23:22:30.870Z,101076.50
2022-10-19T23:25:33.818Z,101088.13
2022-10-19T23:28:36.910Z,101091.19
2022-10-19T23:31:39.737Z,101093.06
2022-10-19T23:34:47.520Z,101092.03
2022-10-19T23:38:06.777Z,101093.84
2022-10-19T23:41:30.460Z,101095.78
2022-10-19T23:44:44.795Z,101105.66
2022-10-19T23:47:55.980Z,101108.28
2022-10-19T23:51:32.005Z,101101.03
2022-10-19T23:54:54.496Z,101107.13
2022-10-19T23:58:09.401Z,101113.84
